Terminal Aerodrome Forecast
Issued by NWS

Current Version | Previous Version | Text Only | Print | Product List | Glossary On
Versions: 1 2 3 4 5 6 7 8 9 10 11 12 13 14 15 16 17 18 19 20 21 22 23 24 25 26 27
000 FTUS41 KOKX 170500 TAFGON TAF KGON 170524Z 1706/1806 VRB03KT P6SM SKC FM171200 35005KT P6SM FEW250 FM171600 20007KT P6SM SCT050 SCT250 FM180000 22004KT P6SM SCT250=

USA.gov is the U.S. government's official web portal to all federal, state and local government web resources and services.